createdAt,value
2023-03-31T00:03:28.622Z,84.06
2023-03-31T00:07:30.655Z,84.34
2023-03-31T00:11:34.769Z,85.01
2023-03-31T00:15:36.300Z,85.01
2023-03-31T00:19:41.125Z,86.51
2023-03-31T00:23:42.651Z,86.71
2023-03-31T00:27:44.916Z,87.17
2023-03-31T00:31:46.619Z,87.60
2023-03-31T00:35:52.584Z,88.46
2023-03-31T00:39:54.021Z,89.64
2023-03-31T00:44:07.154Z,90.12
2023-03-31T00:48:17.076Z,89.70
2023-03-31T00:52:23.660Z,89.41
2023-03-31T00:56:28.845Z,88.81
2023-03-31T01:00:32.691Z,87.97
2023-03-31T01:04:41.957Z,88.38
2023-03-31T01:08:46.750Z,88.59
2023-03-31T01:12:54.253Z,88.22
2023-03-31T01:16:56.158Z,87.62
2023-03-31T01:21:28.055Z,87.70
2023-03-31T01:25:51.073Z,87.57
2023-03-31T01:30:16.659Z,87.18
2023-03-31T01:34:39.849Z,86.59
2023-03-31T01:39:29.493Z,87.27
2023-03-31T01:43:40.911Z,87.55
2023-03-31T01:47:46.695Z,88.49
2023-03-31T01:51:57.572Z,89.07
2023-03-31T01:56:06.451Z,88.55
2023-03-31T02:00:12.791Z,88.55
2023-03-31T02:04:21.128Z,88.16
2023-03-31T02:08:26.918Z,86.76
2023-03-31T02:12:32.897Z,86.80
2023-03-31T02:16:40.285Z,86.78
2023-03-31T02:20:44.470Z,88.50
2023-03-31T02:24:47.215Z,87.35
2023-03-31T02:28:49.197Z,88.80
2023-03-31T02:32:52.786Z,90.05
2023-03-31T02:36:54.962Z,89.88
2023-03-31T02:40:56.420Z,90.20
2023-03-31T02:45:02.189Z,91.04
2023-03-31T02:49:10.323Z,89.78
2023-03-31T02:53:20.086Z,88.43
2023-03-31T02:57:57.301Z,88.04
2023-03-31T03:02:10.453Z,87.04
2023-03-31T03:06:24.967Z,86.69
2023-03-31T03:10:35.472Z,85.87
2023-03-31T03:14:44.411Z,86.48
2023-03-31T03:18:55.361Z,85.94
2023-03-31T03:22:58.359Z,85.69
2023-03-31T03:27:00.580Z,84.94
2023-03-31T03:31:02.232Z,85.39
2023-03-31T03:35:06.457Z,85.53
2023-03-31T03:39:11.540Z,84.80
2023-03-31T03:43:12.952Z,84.80
2023-03-31T03:47:14.824Z,83.85
2023-03-31T03:51:16.281Z,85.37
2023-03-31T03:55:19.542Z,83.66
2023-03-31T03:59:21.284Z,81.64
2023-03-31T04:03:23.039Z,80.75
2023-03-31T04:07:26.220Z,80.16
2023-03-31T04:11:29.765Z,78.96
2023-03-31T04:15:31.690Z,79.66
2023-03-31T04:19:33.442Z,78.07
2023-03-31T04:23:36.999Z,77.82
2023-03-31T04:27:40.171Z,76.51
2023-03-31T04:31:43.427Z,76.45
2023-03-31T04:35:44.976Z,77.67
2023-03-31T04:39:46.790Z,77.26
2023-03-31T04:43:51.014Z,77.67
2023-03-31T04:47:53.703Z,75.66
2023-03-31T04:51:55.574Z,77.25
2023-03-31T04:55:57.894Z,76.12
2023-03-31T05:00:02.732Z,76.45
2023-03-31T05:04:05.100Z,75.63
2023-03-31T05:08:17.895Z,76.18
2023-03-31T05:12:19.549Z,76.35
2023-03-31T05:16:24.768Z,75.72
2023-03-31T05:20:26.325Z,75.69
2023-03-31T05:24:28.009Z,76.96
2023-03-31T05:28:31.306Z,75.92
2023-03-31T05:32:35.588Z,74.72
2023-03-31T05:36:37.001Z,76.21
2023-03-31T05:40:41.557Z,75.50
2023-03-31T05:44:43.875Z,75.54
2023-03-31T05:48:47.441Z,76.95
2023-03-31T05:52:48.896Z,75.49
2023-03-31T05:56:50.873Z,75.19
2023-03-31T06:01:02.068Z,74.45
2023-03-31T06:05:05.825Z,75.25
2023-03-31T06:09:07.651Z,75.49
2023-03-31T06:13:09.365Z,73.96
2023-03-31T06:17:10.784Z,74.41
2023-03-31T06:21:15.622Z,74.40
2023-03-31T06:25:17.309Z,76.81
2023-03-31T06:29:19.540Z,77.93
2023-03-31T06:33:21.007Z,76.45
2023-03-31T06:37:24.136Z,76.46
2023-03-31T06:41:25.846Z,76.83
2023-03-31T06:45:29.763Z,74.57
2023-03-31T06:49:31.599Z,74.23
2023-03-31T06:53:36.140Z,74.08
2023-03-31T06:57:37.625Z,67.96
2023-03-31T07:01:39.233Z,65.76
2023-03-31T07:05:40.995Z,65.31
2023-03-31T07:09:44.136Z,65.40
2023-03-31T07:13:46.868Z,66.62
2023-03-31T07:17:50.425Z,67.14
2023-03-31T07:21:51.999Z,66.84
2023-03-31T07:25:55.003Z,66.32
2023-03-31T07:29:59.104Z,64.52
2023-03-31T07:34:01.954Z,62.88
2023-03-31T07:38:03.423Z,65.01
2023-03-31T07:42:07.199Z,65.41
2023-03-31T07:46:14.733Z,64.80
2023-03-31T07:50:17.706Z,64.91
2023-03-31T07:54:19.724Z,60.03
2023-03-31T07:58:22.576Z,59.51
2023-03-31T08:02:24.156Z,61.87
2023-03-31T08:06:26.941Z,63.68
2023-03-31T08:10:28.817Z,63.78
2023-03-31T08:14:40.785Z,64.92
2023-03-31T08:18:44.946Z,64.81
2023-03-31T08:22:46.416Z,64.45
2023-03-31T08:26:48.203Z,63.60
2023-03-31T08:30:51.321Z,64.08
2023-03-31T08:34:54.526Z,63.42
2023-03-31T08:38:56.542Z,61.76
2023-03-31T08:43:04.197Z,57.62
2023-03-31T08:47:13.116Z,56.18
2023-03-31T08:51:18.750Z,54.53
2023-03-31T08:55:25.288Z,54.04
2023-03-31T08:59:29.658Z,52.18
2023-03-31T09:03:44.402Z,52.30
2023-03-31T09:07:54.609Z,51.15
2023-03-31T09:12:00.287Z,50.41
2023-03-31T09:16:10.005Z,48.43
2023-03-31T09:20:18.614Z,49.39
2023-03-31T09:24:23.481Z,53.23
2023-03-31T09:28:34.319Z,53.58
2023-03-31T09:32:38.277Z,53.79
2023-03-31T09:36:41.895Z,56.19
2023-03-31T09:40:43.908Z,57.27
2023-03-31T09:44:48.752Z,54.19
2023-03-31T09:48:55.314Z,52.09
2023-03-31T09:53:00.319Z,51.73
2023-03-31T09:57:02.174Z,53.63
2023-03-31T10:01:06.571Z,52.18
2023-03-31T10:05:22.714Z,52.85
2023-03-31T10:09:29.941Z,54.64
2023-03-31T10:13:41.456Z,53.50
2023-03-31T10:17:54.846Z,55.62
2023-03-31T10:21:59.391Z,52.42
2023-03-31T10:26:04.963Z,53.51
2023-03-31T10:30:11.226Z,50.36
2023-03-31T10:34:16.104Z,50.63
2023-03-31T10:38:30.608Z,50.58
2023-03-31T10:42:33.680Z,51.64
2023-03-31T10:46:47.463Z,53.00
2023-03-31T10:50:49.295Z,54.62
2023-03-31T10:54:54.749Z,53.03
2023-03-31T10:59:11.535Z,53.23
2023-03-31T11:03:55.122Z,53.33
2023-03-31T11:08:10.425Z,54.16
2023-03-31T11:12:19.531Z,53.90
2023-03-31T11:16:28.352Z,56.50
2023-03-31T11:20:38.042Z,56.11
2023-03-31T11:25:07.387Z,56.95
2023-03-31T11:29:19.878Z,55.76
2023-03-31T11:34:08.652Z,54.86
2023-03-31T11:38:34.892Z,55.36
2023-03-31T11:42:49.257Z,54.54
2023-03-31T11:46:54.938Z,54.58
2023-03-31T11:50:58.629Z,55.07
2023-03-31T11:55:11.642Z,55.63
2023-03-31T11:59:16.280Z,56.15
2023-03-31T12:03:23.633Z,56.22
2023-03-31T12:07:30.903Z,54.73
2023-03-31T12:11:40.109Z,54.68
2023-03-31T12:15:46.166Z,53.55
2023-03-31T12:19:50.379Z,53.70
2023-03-31T12:23:52.656Z,52.21
2023-03-31T12:27:56.307Z,52.38
2023-03-31T12:32:03.715Z,52.31
2023-03-31T12:36:23.314Z,52.93
2023-03-31T12:40:41.586Z,50.89
2023-03-31T12:44:55.838Z,50.68
2023-03-31T12:49:14.904Z,52.93
2023-03-31T12:53:24.882Z,53.15
2023-03-31T12:57:27.150Z,59.82
2023-03-31T13:01:30.429Z,64.50
2023-03-31T13:05:45.772Z,63.61
2023-03-31T13:09:50.594Z,63.38
2023-03-31T13:18:24.452Z,60.93
2023-03-31T13:22:36.002Z,61.54
2023-03-31T13:26:40.426Z,58.02
2023-03-31T13:31:01.835Z,55.82
2023-03-31T13:35:13.768Z,56.79
2023-03-31T13:39:37.965Z,58.49
2023-03-31T13:43:57.419Z,57.17
2023-03-31T13:48:20.458Z,55.25
2023-03-31T13:52:45.460Z,55.63
2023-03-31T13:57:00.747Z,54.61
2023-03-31T14:01:41.275Z,54.22
2023-03-31T14:05:45.561Z,54.37
2023-03-31T14:09:52.640Z,54.64
2023-03-31T14:14:06.401Z,52.28
2023-03-31T14:18:10.462Z,52.86
2023-03-31T14:22:23.470Z,50.55
2023-03-31T14:26:42.171Z,50.26
2023-03-31T14:30:54.445Z,51.32
2023-03-31T14:35:09.579Z,50.89
2023-03-31T14:39:12.712Z,50.43
2023-03-31T14:43:20.914Z,51.73
2023-03-31T14:47:24.587Z,51.58
2023-03-31T14:51:28.594Z,51.62
2023-03-31T14:55:54.169Z,51.27
2023-03-31T14:59:58.290Z,51.36
2023-03-31T15:04:00.886Z,51.50
2023-03-31T15:08:07.000Z,52.26
2023-03-31T15:12:14.008Z,52.89
2023-03-31T15:16:37.285Z,53.15
2023-03-31T15:20:41.412Z,53.64
2023-03-31T15:24:43.790Z,53.74
2023-03-31T15:28:52.517Z,55.29
2023-03-31T15:33:04.139Z,55.32
2023-03-31T15:37:13.554Z,55.39
2023-03-31T15:41:17.339Z,58.31
2023-03-31T15:45:44.926Z,59.79
2023-03-31T15:49:57.426Z,61.66
2023-03-31T15:53:59.038Z,62.98
2023-03-31T15:58:01.517Z,64.01
2023-03-31T16:02:03.072Z,66.28
2023-03-31T16:06:14.848Z,66.64
2023-03-31T16:10:19.343Z,67.05
2023-03-31T16:14:26.686Z,68.57
2023-03-31T16:18:33.739Z,73.46
2023-03-31T16:22:41.451Z,73.53
2023-03-31T16:26:43.707Z,75.84
2023-03-31T16:30:45.793Z,76.52
2023-03-31T16:34:56.979Z,75.86
2023-03-31T16:39:02.611Z,74.24
2023-03-31T16:43:09.010Z,75.46
2023-03-31T16:47:15.055Z,73.52
2023-03-31T16:51:20.284Z,73.53
2023-03-31T16:55:24.901Z,73.21
2023-03-31T16:59:28.125Z,72.01
2023-03-31T17:03:30.084Z,73.12
2023-03-31T17:07:32.047Z,69.59
2023-03-31T17:11:42.080Z,69.34
2023-03-31T17:15:43.631Z,68.36
2023-03-31T17:19:45.348Z,69.55
2023-03-31T17:23:49.483Z,67.46
2023-03-31T17:27:52.641Z,66.96
2023-03-31T17:31:54.090Z,68.03
2023-03-31T17:35:57.100Z,67.79
2023-03-31T17:40:01.266Z,67.55
2023-03-31T17:44:04.430Z,66.32
2023-03-31T17:48:05.951Z,67.96
2023-03-31T17:52:07.599Z,67.09
2023-03-31T17:56:09.589Z,68.14
2023-03-31T18:00:15.054Z,67.60
2023-03-31T18:04:16.868Z,67.53
2023-03-31T18:08:19.651Z,68.14
2023-03-31T18:12:22.550Z,67.94
2023-03-31T18:16:27.551Z,67.88
2023-03-31T18:20:30.652Z,70.19
2023-03-31T18:24:32.349Z,70.14
2023-03-31T18:28:33.823Z,69.26
2023-03-31T18:32:36.956Z,72.19
2023-03-31T18:36:39.215Z,76.34
2023-03-31T18:40:49.379Z,76.89
2023-03-31T18:44:51.138Z,77.03
2023-03-31T18:48:54.171Z,77.89
2023-03-31T18:52:56.631Z,75.99
2023-03-31T18:56:59.427Z,74.14
2023-03-31T19:01:01.476Z,76.19
2023-03-31T19:05:07.782Z,76.05
2023-03-31T19:09:09.885Z,74.54
2023-03-31T19:13:15.108Z,75.17
2023-03-31T19:17:18.921Z,74.44
2023-03-31T19:21:22.288Z,75.04
2023-03-31T19:25:24.020Z,75.16
2023-03-31T19:29:25.456Z,74.97
2023-03-31T19:33:27.216Z,77.54
2023-03-31T19:37:30.209Z,76.92
2023-03-31T19:41:33.493Z,77.54
2023-03-31T19:45:36.551Z,76.53
2023-03-31T19:49:38.394Z,75.90
2023-03-31T19:53:41.302Z,74.22
2023-03-31T19:57:44.131Z,74.30
2023-03-31T20:01:45.887Z,74.19
2023-03-31T20:05:48.142Z,74.57
2023-03-31T20:09:51.150Z,73.75
2023-03-31T20:13:52.925Z,73.52
2023-03-31T20:17:54.919Z,73.18
2023-03-31T20:21:56.434Z,72.84
2023-03-31T20:26:00.721Z,73.08
2023-03-31T20:30:02.253Z,74.19
2023-03-31T20:34:04.617Z,72.19
2023-03-31T20:38:06.280Z,72.46
2023-03-31T20:42:09.498Z,71.98
2023-03-31T20:46:12.454Z,72.62
2023-03-31T20:50:14.076Z,72.66
2023-03-31T20:54:15.529Z,72.51
2023-03-31T20:58:19.564Z,71.72
2023-03-31T21:02:22.328Z,73.18
2023-03-31T21:06:26.148Z,70.72
2023-03-31T21:10:27.866Z,71.51
2023-03-31T21:14:32.212Z,71.94
2023-03-31T21:18:34.753Z,70.96
2023-03-31T21:22:36.125Z,71.17
2023-03-31T21:26:40.937Z,71.13
2023-03-31T21:30:50.798Z,70.90
2023-03-31T21:34:52.778Z,71.36
2023-03-31T21:38:54.753Z,70.46
2023-03-31T21:42:58.009Z,70.89
2023-03-31T21:47:03.315Z,71.33
2023-03-31T21:51:04.875Z,73.08
2023-03-31T21:55:06.844Z,72.19
2023-03-31T21:59:08.721Z,70.84
2023-03-31T22:07:18.319Z,71.65
2023-03-31T22:11:22.381Z,71.48
2023-03-31T22:15:24.156Z,71.61
2023-03-31T22:19:27.394Z,72.83
2023-03-31T22:23:30.114Z,74.00
2023-03-31T22:27:31.655Z,72.90
2023-03-31T22:31:35.285Z,72.75
2023-03-31T22:35:38.097Z,73.46
2023-03-31T22:39:41.025Z,72.91
2023-03-31T22:43:45.323Z,74.02
2023-03-31T22:47:47.705Z,73.76
2023-03-31T22:51:53.739Z,73.77
2023-03-31T22:55:55.560Z,73.60
2023-03-31T22:59:58.822Z,74.32
2023-03-31T23:04:01.431Z,74.42
2023-03-31T23:08:04.695Z,73.70
2023-03-31T23:12:06.379Z,73.43
2023-03-31T23:16:10.176Z,74.71
2023-03-31T23:20:12.840Z,73.93
2023-03-31T23:24:15.860Z,73.77
2023-03-31T23:28:17.443Z,74.56
2023-03-31T23:32:18.960Z,73.86
2023-03-31T23:36:20.747Z,74.38
2023-03-31T23:40:26.107Z,74.64
2023-03-31T23:44:27.819Z,75.51
2023-03-31T23:48:29.556Z,74.22
2023-03-31T23:52:30.953Z,73.76
2023-03-31T23:56:34.021Z,75.85
